DENIK LSZA-EDRM
Flight info
| Callsign | DENIK |
|---|---|
| Flight time | 1h 43m |
| Altitude | 22000 |
| Route | VFR |
| Aircraft | B36T/L-BDFGLORY/S |
Departure
| Time | 2026-04-27 20:25 |
|---|---|
| Airport | Lugano Airport (LSZA) |
Arrival
| Time | 2026-04-27 22:09 |
|---|---|
| Airport | Traben-Trarbach/Mont Royal Airfield (EDRM) |
| Time | Latitude | Longitude | Altitude | Speed | Heading |
|---|---|---|---|---|---|
| 2026-04-27 19:33 | 46.00133 | 8.90713 | 897 ft | 0 kts | 198° |
| 2026-04-27 19:59 | 46.00184 | 8.90770 | 898 ft | 0 kts | 198° |
| 2026-04-27 19:59 | 46.00198 | 8.90762 | 925 ft | 0 kts | 208° |
| 2026-04-27 19:59 | 46.00186 | 8.90753 | 897 ft | 0 kts | 197° |
| 2026-04-27 20:18 | 46.00189 | 8.90798 | 897 ft | 13 kts | 57° |
| 2026-04-27 20:19 | 46.00296 | 8.90883 | 897 ft | 24 kts | 19° |
| 2026-04-27 20:19 | 46.00441 | 8.90952 | 897 ft | 13 kts | 17° |
| 2026-04-27 20:19 | 46.00449 | 8.90956 | 897 ft | 0 kts | 18° |
| 2026-04-27 20:23 | 46.00456 | 8.90961 | 897 ft | 6 kts | 40° |
| 2026-04-27 20:23 | 46.00458 | 8.90985 | 898 ft | 0 kts | 118° |
| 2026-04-27 20:24 | 46.00456 | 8.90990 | 898 ft | 3 kts | 109° |
| 2026-04-27 20:24 | 46.00443 | 8.91048 | 900 ft | 9 kts | 113° |
| 2026-04-27 20:24 | 46.00411 | 8.91052 | 900 ft | 0 kts | 199° |
| 2026-04-27 20:25 | 46.00325 | 8.91009 | 900 ft | 51 kts | 199° |
| 2026-04-27 20:25 | 45.99778 | 8.90757 | 1037 ft | 100 kts | 198° |
| 2026-04-27 20:25 | 45.99025 | 8.90591 | 1370 ft | 119 kts | 180° |
| 2026-04-27 20:25 | 45.98153 | 8.90401 | 1674 ft | 138 kts | 200° |
| 2026-04-27 20:26 | 45.97202 | 8.89867 | 1921 ft | 153 kts | 204° |
| 2026-04-27 20:26 | 45.96223 | 8.89129 | 2106 ft | 164 kts | 216° |
| 2026-04-27 20:26 | 45.95795 | 8.87762 | 2486 ft | 156 kts | 278° |
| 2026-04-27 20:26 | 45.96368 | 8.86466 | 2496 ft | 156 kts | 311° |
| 2026-04-27 20:27 | 45.97120 | 8.85330 | 2450 ft | 158 kts | 314° |
| 2026-04-27 20:27 | 45.97864 | 8.84208 | 2455 ft | 154 kts | 315° |
| 2026-04-27 20:27 | 45.98526 | 8.83068 | 2541 ft | 148 kts | 296° |
| 2026-04-27 20:27 | 45.98867 | 8.81636 | 2552 ft | 157 kts | 288° |
| 2026-04-27 20:28 | 45.99247 | 8.80093 | 2601 ft | 166 kts | 290° |
| 2026-04-27 20:28 | 45.99673 | 8.78553 | 2638 ft | 168 kts | 293° |
| 2026-04-27 20:28 | 46.00140 | 8.77033 | 2666 ft | 166 kts | 294° |
| 2026-04-27 20:28 | 46.00509 | 8.76066 | 2654 ft | 166 kts | 305° |
| 2026-04-27 20:29 | 46.01706 | 8.74651 | 2579 ft | 170 kts | 332° |
| 2026-04-27 20:29 | 46.02752 | 8.73901 | 2581 ft | 167 kts | 336° |
| 2026-04-27 20:29 | 46.03801 | 8.73240 | 2588 ft | 165 kts | 338° |
| 2026-04-27 20:29 | 46.04871 | 8.72675 | 2694 ft | 159 kts | 342° |
| 2026-04-27 20:30 | 46.05920 | 8.72187 | 2693 ft | 163 kts | 342° |
| 2026-04-27 20:30 | 46.07020 | 8.71727 | 2697 ft | 163 kts | 349° |
| 2026-04-27 20:30 | 46.08147 | 8.71754 | 2606 ft | 168 kts | 13° |
| 2026-04-27 20:30 | 46.09212 | 8.72409 | 2610 ft | 166 kts | 30° |
| 2026-04-27 20:31 | 46.10185 | 8.73313 | 2619 ft | 165 kts | 36° |
| 2026-04-27 20:31 | 46.11070 | 8.74362 | 2574 ft | 166 kts | 41° |
| 2026-04-27 20:31 | 46.11903 | 8.75488 | 2576 ft | 165 kts | 43° |
| 2026-04-27 20:31 | 46.12703 | 8.76695 | 2548 ft | 166 kts | 49° |
| 2026-04-27 20:32 | 46.13457 | 8.77948 | 2543 ft | 165 kts | 47° |
| 2026-04-27 20:32 | 46.14252 | 8.79118 | 2515 ft | 165 kts | 50° |
| 2026-04-27 20:32 | 46.14938 | 8.80452 | 2480 ft | 166 kts | 54° |
| 2026-04-27 20:32 | 46.15537 | 8.81874 | 2441 ft | 167 kts | 63° |
| 2026-04-27 20:33 | 46.16008 | 8.83404 | 2431 ft | 166 kts | 69° |
| 2026-04-27 20:33 | 46.16371 | 8.84973 | 2405 ft | 166 kts | 75° |
| 2026-04-27 20:33 | 46.16594 | 8.86600 | 2386 ft | 166 kts | 81° |
| 2026-04-27 20:33 | 46.16756 | 8.88246 | 2391 ft | 165 kts | 83° |
| 2026-04-27 20:34 | 46.16880 | 8.89874 | 2427 ft | 162 kts | 84° |
| 2026-04-27 20:34 | 46.16986 | 8.91522 | 2369 ft | 166 kts | 84° |
| 2026-04-27 20:34 | 46.17098 | 8.93153 | 2402 ft | 163 kts | 84° |
| 2026-04-27 20:34 | 46.17212 | 8.94793 | 2402 ft | 164 kts | 85° |
| 2026-04-27 20:35 | 46.17302 | 8.96420 | 2388 ft | 164 kts | 83° |
| 2026-04-27 20:35 | 46.17611 | 8.98006 | 2377 ft | 165 kts | 64° |
| 2026-04-27 20:35 | 46.18300 | 8.99283 | 2425 ft | 162 kts | 40° |
| 2026-04-27 20:35 | 46.19153 | 9.00322 | 2448 ft | 162 kts | 40° |
| 2026-04-27 20:36 | 46.20021 | 9.01384 | 2469 ft | 162 kts | 40° |
| 2026-04-27 20:36 | 46.20863 | 9.02452 | 2502 ft | 162 kts | 41° |
| 2026-04-27 20:36 | 46.21773 | 9.03391 | 2478 ft | 164 kts | 25° |
| 2026-04-27 20:36 | 46.22893 | 9.03619 | 2447 ft | 166 kts | 351° |
| 2026-04-27 20:37 | 46.23935 | 9.02890 | 2393 ft | 166 kts | 323° |
| 2026-04-27 20:37 | 46.24777 | 9.01820 | 2535 ft | 158 kts | 322° |
| 2026-04-27 20:37 | 46.25714 | 9.00951 | 2540 ft | 161 kts | 330° |
| 2026-04-27 20:37 | 46.26723 | 9.00259 | 2539 ft | 163 kts | 338° |
| 2026-04-27 20:38 | 46.27784 | 8.99658 | 2561 ft | 162 kts | 339° |
| 2026-04-27 20:38 | 46.28834 | 8.99071 | 2589 ft | 162 kts | 340° |
| 2026-04-27 20:38 | 46.29897 | 8.98549 | 2588 ft | 163 kts | 342° |
| 2026-04-27 20:38 | 46.30986 | 8.98070 | 2615 ft | 163 kts | 343° |
| 2026-04-27 20:39 | 46.32088 | 8.97637 | 2603 ft | 164 kts | 346° |
| 2026-04-27 20:39 | 46.33180 | 8.97172 | 2639 ft | 164 kts | 340° |
| 2026-04-27 20:39 | 46.34229 | 8.96492 | 2610 ft | 166 kts | 333° |
| 2026-04-27 20:39 | 46.35123 | 8.95504 | 2624 ft | 165 kts | 311° |
| 2026-04-27 20:40 | 46.35838 | 8.94210 | 2639 ft | 164 kts | 307° |
| 2026-04-27 20:40 | 46.36521 | 8.92884 | 2652 ft | 164 kts | 308° |
| 2026-04-27 20:40 | 46.37245 | 8.91614 | 2661 ft | 164 kts | 310° |
| 2026-04-27 20:40 | 46.38006 | 8.90349 | 2677 ft | 164 kts | 311° |
| 2026-04-27 20:41 | 46.38767 | 8.89167 | 2775 ft | 161 kts | 314° |
| 2026-04-27 20:41 | 46.39588 | 8.88045 | 2889 ft | 163 kts | 318° |
| 2026-04-27 20:41 | 46.40451 | 8.86961 | 2974 ft | 163 kts | 321° |
| 2026-04-27 20:41 | 46.41401 | 8.86117 | 3113 ft | 163 kts | 335° |
| 2026-04-27 20:42 | 46.42453 | 8.85443 | 3345 ft | 165 kts | 333° |
| 2026-04-27 20:42 | 46.43481 | 8.84703 | 3608 ft | 165 kts | 333° |
| 2026-04-27 20:42 | 46.44499 | 8.83925 | 3835 ft | 167 kts | 332° |
| 2026-04-27 20:42 | 46.44837 | 8.83675 | 3904 ft | 168 kts | 333° |
| 2026-04-27 20:43 | 46.45030 | 8.83534 | 3943 ft | 168 kts | 333° |
| 2026-04-27 20:43 | 46.46078 | 8.82724 | 4236 ft | 166 kts | 327° |
| 2026-04-27 20:43 | 46.46939 | 8.81613 | 4485 ft | 167 kts | 307° |
| 2026-04-27 20:43 | 46.47494 | 8.80127 | 4703 ft | 168 kts | 293° |
| 2026-04-27 20:44 | 46.47966 | 8.78609 | 4980 ft | 167 kts | 293° |
| 2026-04-27 20:44 | 46.48374 | 8.77004 | 5185 ft | 169 kts | 287° |
| 2026-04-27 20:44 | 46.48730 | 8.75391 | 5418 ft | 169 kts | 291° |
| 2026-04-27 20:44 | 46.49307 | 8.73895 | 5624 ft | 173 kts | 305° |
| 2026-04-27 20:45 | 46.50049 | 8.72517 | 5893 ft | 171 kts | 308° |
| 2026-04-27 20:45 | 46.50723 | 8.71106 | 6126 ft | 171 kts | 300° |
| 2026-04-27 20:45 | 46.51296 | 8.69596 | 6367 ft | 171 kts | 297° |
| 2026-04-27 20:45 | 46.51796 | 8.68037 | 6651 ft | 168 kts | 290° |
| 2026-04-27 20:46 | 46.52375 | 8.66585 | 6939 ft | 169 kts | 310° |
| 2026-04-27 20:46 | 46.53310 | 8.65600 | 7295 ft | 165 kts | 334° |
| 2026-04-27 20:46 | 46.54226 | 8.64671 | 7720 ft | 158 kts | 309° |
| 2026-04-27 20:46 | 46.54694 | 8.63250 | 8036 ft | 160 kts | 279° |
| 2026-04-27 20:47 | 46.54664 | 8.61619 | 8304 ft | 163 kts | 265° |
| 2026-04-27 20:47 | 46.54823 | 8.59985 | 8591 ft | 168 kts | 290° |
| 2026-04-27 20:47 | 46.55318 | 8.58443 | 8875 ft | 172 kts | 297° |
| 2026-04-27 20:47 | 46.56111 | 8.57157 | 9084 ft | 180 kts | 329° |
| 2026-04-27 20:48 | 46.57283 | 8.56334 | 9168 ft | 189 kts | 337° |
| 2026-04-27 20:48 | 46.58564 | 8.56038 | 9246 ft | 193 kts | 5° |
| 2026-04-27 20:48 | 46.59898 | 8.56480 | 9277 ft | 197 kts | 15° |
| 2026-04-27 20:48 | 46.61195 | 8.57023 | 9318 ft | 195 kts | 15° |
| 2026-04-27 20:49 | 46.62528 | 8.57510 | 9189 ft | 200 kts | 13° |
| 2026-04-27 20:49 | 46.63898 | 8.57990 | 9072 ft | 202 kts | 12° |
| 2026-04-27 20:49 | 46.65247 | 8.58433 | 9051 ft | 197 kts | 13° |
| 2026-04-27 20:49 | 46.66579 | 8.58919 | 8879 ft | 201 kts | 14° |
| 2026-04-27 20:50 | 46.67924 | 8.59454 | 8791 ft | 200 kts | 15° |
| 2026-04-27 20:50 | 46.69234 | 8.60099 | 8698 ft | 196 kts | 22° |
| 2026-04-27 20:50 | 46.70471 | 8.60939 | 8468 ft | 198 kts | 26° |
| 2026-04-27 20:50 | 46.71693 | 8.61902 | 8296 ft | 193 kts | 30° |
| 2026-04-27 20:51 | 46.72818 | 8.62875 | 7991 ft | 189 kts | 30° |
| 2026-04-27 20:51 | 46.73980 | 8.63816 | 7538 ft | 192 kts | 28° |
| 2026-04-27 20:51 | 46.75083 | 8.64708 | 7505 ft | 175 kts | 30° |
| 2026-04-27 20:51 | 46.76174 | 8.65557 | 7173 ft | 183 kts | 24° |
| 2026-04-27 20:52 | 46.77385 | 8.66121 | 6874 ft | 182 kts | 8° |
| 2026-04-27 20:52 | 46.78634 | 8.66082 | 6575 ft | 182 kts | 349° |
| 2026-04-27 20:52 | 46.79859 | 8.65647 | 6318 ft | 179 kts | 344° |
| 2026-04-27 20:52 | 46.81051 | 8.65224 | 6089 ft | 177 kts | 345° |
| 2026-04-27 20:53 | 46.82264 | 8.64734 | 5899 ft | 182 kts | 341° |
| 2026-04-27 20:53 | 46.83470 | 8.64193 | 5742 ft | 183 kts | 342° |
| 2026-04-27 20:53 | 46.84673 | 8.63669 | 5666 ft | 176 kts | 342° |
| 2026-04-27 20:53 | 46.85852 | 8.63151 | 5432 ft | 178 kts | 343° |
| 2026-04-27 20:54 | 46.88250 | 8.62347 | 5090 ft | 177 kts | 346° |
| 2026-04-27 20:54 | 46.89426 | 8.61849 | 4938 ft | 176 kts | 343° |
| 2026-04-27 20:54 | 46.90594 | 8.61424 | 4782 ft | 173 kts | 348° |
| 2026-04-27 20:55 | 46.91806 | 8.61153 | 4492 ft | 177 kts | 353° |
| 2026-04-27 20:55 | 46.93000 | 8.60913 | 4318 ft | 173 kts | 351° |
| 2026-04-27 20:55 | 46.94203 | 8.60663 | 4096 ft | 173 kts | 353° |
| 2026-04-27 20:55 | 46.95390 | 8.60474 | 3889 ft | 172 kts | 355° |
| 2026-04-27 20:56 | 46.96589 | 8.60332 | 3685 ft | 172 kts | 355° |
| 2026-04-27 20:56 | 46.97766 | 8.60142 | 3590 ft | 170 kts | 347° |
| 2026-04-27 20:56 | 46.98785 | 8.59293 | 3491 ft | 170 kts | 314° |
| 2026-04-27 20:56 | 46.99284 | 8.57763 | 3474 ft | 167 kts | 275° |
| 2026-04-27 20:57 | 46.99119 | 8.56122 | 3482 ft | 163 kts | 257° |
| 2026-04-27 20:57 | 46.98945 | 8.54881 | 3514 ft | 161 kts | 258° |
| 2026-04-27 20:57 | 46.98697 | 8.53235 | 3504 ft | 168 kts | 256° |
| 2026-04-27 20:57 | 46.98543 | 8.51567 | 3534 ft | 167 kts | 270° |
| 2026-04-27 20:58 | 46.98736 | 8.49873 | 3559 ft | 168 kts | 287° |
| 2026-04-27 20:58 | 46.99234 | 8.48351 | 3610 ft | 166 kts | 301° |
| 2026-04-27 20:58 | 46.99868 | 8.46915 | 3641 ft | 166 kts | 302° |
| 2026-04-27 20:58 | 47.00379 | 8.45427 | 3648 ft | 166 kts | 289° |
| 2026-04-27 20:59 | 47.00709 | 8.43796 | 3642 ft | 166 kts | 283° |
| 2026-04-27 20:59 | 47.00958 | 8.42171 | 3684 ft | 164 kts | 282° |
| 2026-04-27 20:59 | 47.01259 | 8.40526 | 3663 ft | 167 kts | 288° |
| 2026-04-27 20:59 | 47.01647 | 8.38943 | 3703 ft | 166 kts | 291° |
| 2026-04-27 21:00 | 47.02092 | 8.37346 | 3671 ft | 170 kts | 292° |
| 2026-04-27 21:00 | 47.02571 | 8.35771 | 3666 ft | 171 kts | 295° |
| 2026-04-27 21:00 | 47.03093 | 8.34211 | 3646 ft | 172 kts | 296° |
| 2026-04-27 21:00 | 47.03643 | 8.32625 | 3648 ft | 176 kts | 298° |
| 2026-04-27 21:01 | 47.04245 | 8.31044 | 3619 ft | 180 kts | 301° |
| 2026-04-27 21:01 | 47.04905 | 8.29451 | 3598 ft | 183 kts | 303° |
| 2026-04-27 21:01 | 47.05597 | 8.27899 | 3576 ft | 181 kts | 305° |
| 2026-04-27 21:01 | 47.06335 | 8.26435 | 3625 ft | 179 kts | 309° |
| 2026-04-27 21:02 | 47.07145 | 8.25048 | 3642 ft | 179 kts | 316° |
| 2026-04-27 21:02 | 47.08024 | 8.23701 | 3545 ft | 184 kts | 316° |
| 2026-04-27 21:02 | 47.08930 | 8.22384 | 3500 ft | 185 kts | 316° |
| 2026-04-27 21:02 | 47.09830 | 8.21060 | 3563 ft | 184 kts | 316° |
| 2026-04-27 21:03 | 47.10764 | 8.19738 | 3505 ft | 188 kts | 319° |
| 2026-04-27 21:03 | 47.11658 | 8.18377 | 3627 ft | 184 kts | 311° |
| 2026-04-27 21:03 | 47.12529 | 8.16934 | 3513 ft | 190 kts | 316° |
| 2026-04-27 21:03 | 47.13454 | 8.15580 | 3533 ft | 184 kts | 318° |
| 2026-04-27 21:04 | 47.14380 | 8.14320 | 3587 ft | 181 kts | 319° |
| 2026-04-27 21:04 | 47.14689 | 8.13893 | 3610 ft | 180 kts | 318° |
| 2026-04-27 21:04 | 47.15178 | 8.13208 | 3580 ft | 183 kts | 318° |
| 2026-04-27 21:04 | 47.16099 | 8.11929 | 3557 ft | 185 kts | 319° |
| 2026-04-27 21:05 | 47.17053 | 8.10646 | 3630 ft | 183 kts | 320° |
| 2026-04-27 21:05 | 47.17997 | 8.09353 | 3645 ft | 191 kts | 319° |
| 2026-04-27 21:05 | 47.18983 | 8.08037 | 3583 ft | 190 kts | 321° |
| 2026-04-27 21:05 | 47.19943 | 8.06772 | 3818 ft | 183 kts | 320° |
| 2026-04-27 21:06 | 47.20928 | 8.05595 | 4012 ft | 182 kts | 324° |
| 2026-04-27 21:06 | 47.21966 | 8.04479 | 4026 ft | 185 kts | 326° |
| 2026-04-27 21:06 | 47.22980 | 8.03300 | 4105 ft | 184 kts | 321° |
| 2026-04-27 21:06 | 47.23938 | 8.02101 | 4220 ft | 177 kts | 322° |
| 2026-04-27 21:07 | 47.24870 | 8.00948 | 4339 ft | 179 kts | 321° |
| 2026-04-27 21:07 | 47.25847 | 7.99733 | 4324 ft | 188 kts | 324° |
| 2026-04-27 21:07 | 47.26867 | 7.98493 | 4181 ft | 194 kts | 322° |
| 2026-04-27 21:07 | 47.27905 | 7.97206 | 4079 ft | 196 kts | 321° |
| 2026-04-27 21:08 | 47.28952 | 7.95920 | 4022 ft | 191 kts | 322° |
| 2026-04-27 21:08 | 47.29959 | 7.94685 | 4046 ft | 191 kts | 322° |
| 2026-04-27 21:08 | 47.30992 | 7.93420 | 4001 ft | 197 kts | 322° |
| 2026-04-27 21:08 | 47.32046 | 7.92117 | 4029 ft | 198 kts | 322° |
| 2026-04-27 21:09 | 47.33094 | 7.90813 | 4010 ft | 194 kts | 322° |
| 2026-04-27 21:09 | 47.34133 | 7.89524 | 4020 ft | 194 kts | 323° |
| 2026-04-27 21:09 | 47.35115 | 7.88298 | 4015 ft | 196 kts | 321° |
| 2026-04-27 21:09 | 47.36141 | 7.87009 | 4031 ft | 195 kts | 322° |
| 2026-04-27 21:10 | 47.37175 | 7.85726 | 4011 ft | 192 kts | 322° |
| 2026-04-27 21:10 | 47.38192 | 7.84442 | 4013 ft | 192 kts | 322° |
| 2026-04-27 21:10 | 47.39202 | 7.83181 | 4013 ft | 192 kts | 322° |
| 2026-04-27 21:10 | 47.40214 | 7.81914 | 4028 ft | 188 kts | 322° |
| 2026-04-27 21:11 | 47.41201 | 7.80677 | 4023 ft | 189 kts | 322° |
| 2026-04-27 21:11 | 47.42223 | 7.79400 | 4014 ft | 192 kts | 321° |
| 2026-04-27 21:11 | 47.43237 | 7.78140 | 3988 ft | 189 kts | 322° |
| 2026-04-27 21:11 | 47.44232 | 7.76917 | 3968 ft | 185 kts | 323° |
| 2026-04-27 21:12 | 47.45181 | 7.75752 | 4003 ft | 177 kts | 322° |
| 2026-04-27 21:12 | 47.46119 | 7.74597 | 3989 ft | 170 kts | 322° |
| 2026-04-27 21:12 | 47.47006 | 7.73496 | 3988 ft | 170 kts | 322° |
| 2026-04-27 21:12 | 47.47897 | 7.72398 | 4009 ft | 167 kts | 322° |
| 2026-04-27 21:13 | 47.48790 | 7.71287 | 4005 ft | 170 kts | 322° |
| 2026-04-27 21:13 | 47.49712 | 7.70159 | 4019 ft | 173 kts | 324° |
| 2026-04-27 21:13 | 47.50642 | 7.69028 | 4006 ft | 175 kts | 321° |
| 2026-04-27 21:13 | 47.51572 | 7.67874 | 4012 ft | 175 kts | 322° |
| 2026-04-27 21:14 | 47.52522 | 7.66708 | 4011 ft | 182 kts | 323° |
| 2026-04-27 21:14 | 47.53514 | 7.65498 | 4005 ft | 189 kts | 322° |
| 2026-04-27 21:14 | 47.54521 | 7.64272 | 3996 ft | 183 kts | 322° |
| 2026-04-27 21:14 | 47.55486 | 7.63094 | 4006 ft | 182 kts | 322° |
| 2026-04-27 21:15 | 47.56476 | 7.61893 | 4001 ft | 182 kts | 322° |
| 2026-04-27 21:15 | 47.57443 | 7.60716 | 3997 ft | 181 kts | 322° |
| 2026-04-27 21:15 | 47.58409 | 7.59547 | 3999 ft | 181 kts | 322° |
| 2026-04-27 21:15 | 47.59393 | 7.58359 | 4005 ft | 182 kts | 322° |
| 2026-04-27 21:16 | 47.60383 | 7.57162 | 4013 ft | 186 kts | 322° |
| 2026-04-27 21:16 | 47.61415 | 7.55967 | 4000 ft | 192 kts | 329° |
| 2026-04-27 21:16 | 47.62659 | 7.55487 | 4005 ft | 183 kts | 358° |
| 2026-04-27 21:16 | 47.63933 | 7.55378 | 4008 ft | 180 kts | 357° |
| 2026-04-27 21:17 | 47.65152 | 7.55080 | 4007 ft | 180 kts | 349° |
| 2026-04-27 21:17 | 47.66423 | 7.54622 | 3997 ft | 191 kts | 348° |
| 2026-04-27 21:17 | 47.67715 | 7.54168 | 3998 ft | 195 kts | 351° |
| 2026-04-27 21:17 | 47.69045 | 7.54057 | 4009 ft | 192 kts | 2° |
| 2026-04-27 21:18 | 47.70392 | 7.54075 | 4006 ft | 193 kts | 1° |
| 2026-04-27 21:18 | 47.71712 | 7.54063 | 3994 ft | 188 kts | 2° |
| 2026-04-27 21:18 | 47.73018 | 7.54058 | 3992 ft | 186 kts | 1° |
| 2026-04-27 21:18 | 47.74302 | 7.54060 | 3992 ft | 184 kts | 2° |
| 2026-04-27 21:19 | 47.75574 | 7.54061 | 3992 ft | 183 kts | 2° |
| 2026-04-27 21:19 | 47.76846 | 7.54068 | 3993 ft | 185 kts | 2° |
| 2026-04-27 21:19 | 47.78135 | 7.54076 | 4007 ft | 185 kts | 2° |
| 2026-04-27 21:20 | 47.80793 | 7.54086 | 3998 ft | 196 kts | 2° |
| 2026-04-27 21:20 | 47.82162 | 7.54094 | 3999 ft | 201 kts | 2° |
| 2026-04-27 21:20 | 47.83567 | 7.54106 | 4007 ft | 205 kts | 2° |
| 2026-04-27 21:20 | 47.85002 | 7.54111 | 3997 ft | 205 kts | 2° |
| 2026-04-27 21:21 | 47.85464 | 7.54114 | 4003 ft | 205 kts | 2° |
| 2026-04-27 21:21 | 47.87232 | 7.54117 | 4004 ft | 205 kts | 2° |
| 2026-04-27 21:21 | 47.88677 | 7.54140 | 3987 ft | 205 kts | 2° |
| 2026-04-27 21:22 | 47.90087 | 7.54145 | 3991 ft | 202 kts | 2° |
| 2026-04-27 21:22 | 47.91469 | 7.54155 | 3986 ft | 199 kts | 2° |
| 2026-04-27 21:22 | 47.92845 | 7.54164 | 3997 ft | 198 kts | 2° |
| 2026-04-27 21:22 | 47.94228 | 7.54172 | 3995 ft | 197 kts | 1° |
| 2026-04-27 21:23 | 47.95601 | 7.54185 | 3988 ft | 200 kts | 2° |
| 2026-04-27 21:23 | 47.96990 | 7.54195 | 3992 ft | 201 kts | 2° |
| 2026-04-27 21:23 | 47.98386 | 7.54207 | 3993 ft | 199 kts | 2° |
| 2026-04-27 21:23 | 47.99764 | 7.54219 | 3994 ft | 198 kts | 2° |
| 2026-04-27 21:24 | 48.01150 | 7.54232 | 4010 ft | 198 kts | 1° |
| 2026-04-27 21:24 | 48.02538 | 7.54247 | 4004 ft | 202 kts | 2° |
| 2026-04-27 21:24 | 48.03928 | 7.54261 | 4013 ft | 200 kts | 2° |
| 2026-04-27 21:24 | 48.05347 | 7.54272 | 3994 ft | 203 kts | 2° |
| 2026-04-27 21:25 | 48.06731 | 7.54281 | 3994 ft | 199 kts | 2° |
| 2026-04-27 21:25 | 48.08119 | 7.54293 | 3993 ft | 197 kts | 2° |
| 2026-04-27 21:25 | 48.09509 | 7.54311 | 3842 ft | 205 kts | 2° |
| 2026-04-27 21:25 | 48.10944 | 7.54323 | 3653 ft | 208 kts | 2° |
| 2026-04-27 21:26 | 48.12398 | 7.54340 | 3474 ft | 211 kts | 2° |
| 2026-04-27 21:26 | 48.13389 | 7.54349 | 3335 ft | 212 kts | 2° |
| 2026-04-27 21:26 | 48.15362 | 7.54327 | 3027 ft | 214 kts | 1° |
| 2026-04-27 21:26 | 48.16826 | 7.54339 | 3008 ft | 209 kts | 1° |
| 2026-04-27 21:27 | 48.17784 | 7.54346 | 2994 ft | 206 kts | 2° |
| 2026-04-27 21:27 | 48.19193 | 7.54351 | 2991 ft | 199 kts | 2° |
| 2026-04-27 21:27 | 48.20589 | 7.54355 | 2991 ft | 198 kts | 2° |
| 2026-04-27 21:27 | 48.21958 | 7.54356 | 2994 ft | 196 kts | 1° |
| 2026-04-27 21:28 | 48.23299 | 7.54355 | 3006 ft | 194 kts | 1° |
| 2026-04-27 21:28 | 48.24670 | 7.54351 | 2996 ft | 198 kts | 2° |
| 2026-04-27 21:28 | 48.26043 | 7.54286 | 2989 ft | 197 kts | 352° |
| 2026-04-27 21:28 | 48.27240 | 7.53267 | 2999 ft | 205 kts | 313° |
| 2026-04-27 21:29 | 48.27811 | 7.51336 | 2993 ft | 204 kts | 280° |
| 2026-04-27 21:29 | 48.27982 | 7.49252 | 2989 ft | 203 kts | 276° |
| 2026-04-27 21:29 | 48.28137 | 7.47134 | 2997 ft | 203 kts | 276° |
| 2026-04-27 21:29 | 48.28043 | 7.45063 | 2994 ft | 204 kts | 249° |
| 2026-04-27 21:30 | 48.27363 | 7.43201 | 3006 ft | 200 kts | 237° |
| 2026-04-27 21:30 | 48.26681 | 7.41383 | 3010 ft | 203 kts | 245° |
| 2026-04-27 21:30 | 48.26111 | 7.39416 | 3007 ft | 204 kts | 246° |
| 2026-04-27 21:30 | 48.25549 | 7.37465 | 3000 ft | 203 kts | 246° |
| 2026-04-27 21:31 | 48.24987 | 7.35528 | 2999 ft | 201 kts | 246° |
| 2026-04-27 21:31 | 48.24768 | 7.33511 | 2996 ft | 200 kts | 278° |
| 2026-04-27 21:31 | 48.25400 | 7.31687 | 2992 ft | 197 kts | 319° |
| 2026-04-27 21:31 | 48.26605 | 7.30846 | 2993 ft | 193 kts | 353° |
| 2026-04-27 21:32 | 48.27898 | 7.31149 | 3001 ft | 190 kts | 26° |
| 2026-04-27 21:32 | 48.29033 | 7.32120 | 3005 ft | 189 kts | 33° |
| 2026-04-27 21:32 | 48.30154 | 7.33165 | 3007 ft | 189 kts | 33° |
| 2026-04-27 21:32 | 48.31273 | 7.34216 | 2994 ft | 195 kts | 34° |
| 2026-04-27 21:33 | 48.32435 | 7.35312 | 3009 ft | 198 kts | 34° |
| 2026-04-27 21:33 | 48.32816 | 7.35668 | 2989 ft | 199 kts | 33° |
| 2026-04-27 21:34 | 48.33138 | 7.35966 | 3023 ft | 199 kts | 33° |
| 2026-04-27 21:35 | 48.33755 | 7.36394 | 2983 ft | 202 kts | 20° |
| 2026-04-27 21:35 | 48.34936 | 7.36411 | 2980 ft | 199 kts | 346° |
| 2026-04-27 21:35 | 48.36279 | 7.36319 | 3036 ft | 191 kts | 11° |
| 2026-04-27 21:36 | 48.37589 | 7.36516 | 3016 ft | 195 kts | 353° |
| 2026-04-27 21:36 | 48.38761 | 7.35625 | 3263 ft | 183 kts | 330° |
| 2026-04-27 21:36 | 48.39952 | 7.35212 | 3507 ft | 177 kts | 3° |
| 2026-04-27 21:36 | 48.41170 | 7.35278 | 3753 ft | 174 kts | 5° |
| 2026-04-27 21:37 | 48.42437 | 7.35356 | 3634 ft | 191 kts | 5° |
| 2026-04-27 21:37 | 48.43801 | 7.35445 | 3401 ft | 201 kts | 5° |
| 2026-04-27 21:37 | 48.45204 | 7.35534 | 3165 ft | 205 kts | 5° |
| 2026-04-27 21:37 | 48.46646 | 7.35625 | 3010 ft | 206 kts | 5° |
| 2026-04-27 21:38 | 48.48049 | 7.35703 | 3011 ft | 201 kts | 5° |
| 2026-04-27 21:38 | 48.49441 | 7.35776 | 3003 ft | 198 kts | 5° |
| 2026-04-27 21:38 | 48.50803 | 7.35843 | 2999 ft | 196 kts | 4° |
| 2026-04-27 21:38 | 48.52160 | 7.35910 | 3030 ft | 197 kts | 4° |
| 2026-04-27 21:39 | 48.53542 | 7.35987 | 2993 ft | 194 kts | 5° |
| 2026-04-27 21:39 | 48.54879 | 7.36042 | 2994 ft | 192 kts | 4° |
| 2026-04-27 21:39 | 48.56210 | 7.36105 | 2994 ft | 192 kts | 5° |
| 2026-04-27 21:39 | 48.57555 | 7.36166 | 2995 ft | 192 kts | 5° |
| 2026-04-27 21:40 | 48.58886 | 7.36226 | 2996 ft | 192 kts | 5° |
| 2026-04-27 21:40 | 48.60218 | 7.36290 | 2993 ft | 194 kts | 5° |
| 2026-04-27 21:40 | 48.61576 | 7.36358 | 2995 ft | 194 kts | 5° |
| 2026-04-27 21:40 | 48.62908 | 7.36406 | 2996 ft | 192 kts | 4° |
| 2026-04-27 21:41 | 48.64234 | 7.36460 | 2997 ft | 191 kts | 5° |
| 2026-04-27 21:41 | 48.65575 | 7.36511 | 3016 ft | 193 kts | 5° |
| 2026-04-27 21:41 | 48.66936 | 7.36567 | 3006 ft | 198 kts | 5° |
| 2026-04-27 21:41 | 48.68306 | 7.36625 | 2998 ft | 199 kts | 5° |
| 2026-04-27 21:42 | 48.69681 | 7.36675 | 2995 ft | 197 kts | 5° |
| 2026-04-27 21:42 | 48.71068 | 7.36721 | 3008 ft | 198 kts | 4° |
| 2026-04-27 21:42 | 48.72435 | 7.36763 | 3007 ft | 197 kts | 5° |
| 2026-04-27 21:42 | 48.73829 | 7.36812 | 3008 ft | 199 kts | 5° |
| 2026-04-27 21:43 | 48.75201 | 7.36858 | 3003 ft | 199 kts | 5° |
| 2026-04-27 21:43 | 48.76586 | 7.36900 | 3009 ft | 200 kts | 5° |
| 2026-04-27 21:43 | 48.77981 | 7.36935 | 2998 ft | 199 kts | 5° |
| 2026-04-27 21:44 | 48.78849 | 7.36877 | 2987 ft | 198 kts | 357° |
| 2026-04-27 21:44 | 48.80202 | 7.36550 | 2995 ft | 195 kts | 354° |
| 2026-04-27 21:44 | 48.81541 | 7.36188 | 2997 ft | 194 kts | 354° |
| 2026-04-27 21:44 | 48.82867 | 7.35821 | 2997 ft | 195 kts | 354° |
| 2026-04-27 21:45 | 48.84195 | 7.35452 | 2993 ft | 191 kts | 354° |
| 2026-04-27 21:45 | 48.85478 | 7.34878 | 3002 ft | 195 kts | 339° |
| 2026-04-27 21:45 | 48.86697 | 7.33961 | 3009 ft | 198 kts | 337° |
| 2026-04-27 21:45 | 48.87930 | 7.33021 | 3008 ft | 198 kts | 337° |
| 2026-04-27 21:46 | 48.89161 | 7.32078 | 3009 ft | 197 kts | 337° |
| 2026-04-27 21:46 | 48.90408 | 7.31119 | 2994 ft | 203 kts | 337° |
| 2026-04-27 21:46 | 48.91646 | 7.30168 | 3021 ft | 201 kts | 337° |
| 2026-04-27 21:46 | 48.92898 | 7.29204 | 3017 ft | 200 kts | 337° |
| 2026-04-27 21:47 | 48.94144 | 7.28260 | 3012 ft | 202 kts | 337° |
| 2026-04-27 21:47 | 48.95401 | 7.27294 | 2946 ft | 203 kts | 336° |
| 2026-04-27 21:47 | 48.96660 | 7.26331 | 2940 ft | 201 kts | 337° |
| 2026-04-27 21:47 | 48.97957 | 7.25608 | 2936 ft | 196 kts | 351° |
| 2026-04-27 21:48 | 48.99277 | 7.25188 | 2942 ft | 196 kts | 353° |
| 2026-04-27 21:48 | 49.00622 | 7.24777 | 2958 ft | 196 kts | 354° |
| 2026-04-27 21:48 | 49.01958 | 7.24356 | 2956 ft | 197 kts | 352° |
| 2026-04-27 21:48 | 49.03328 | 7.23937 | 2940 ft | 201 kts | 353° |
| 2026-04-27 21:49 | 49.04678 | 7.23528 | 2945 ft | 197 kts | 353° |
| 2026-04-27 21:49 | 49.06031 | 7.23124 | 2953 ft | 199 kts | 353° |
| 2026-04-27 21:49 | 49.07401 | 7.22718 | 2960 ft | 199 kts | 353° |
| 2026-04-27 21:49 | 49.08756 | 7.22299 | 2943 ft | 200 kts | 353° |
| 2026-04-27 21:50 | 49.10136 | 7.21884 | 2954 ft | 203 kts | 353° |
| 2026-04-27 21:50 | 49.11534 | 7.21463 | 2947 ft | 205 kts | 353° |
| 2026-04-27 21:50 | 49.12907 | 7.21049 | 2939 ft | 201 kts | 353° |
| 2026-04-27 21:50 | 49.14275 | 7.20629 | 2942 ft | 198 kts | 353° |
| 2026-04-27 21:51 | 49.15637 | 7.20213 | 2945 ft | 199 kts | 353° |
| 2026-04-27 21:51 | 49.16986 | 7.19798 | 2938 ft | 200 kts | 353° |
| 2026-04-27 21:51 | 49.18354 | 7.19384 | 2950 ft | 200 kts | 353° |
| 2026-04-27 21:51 | 49.19706 | 7.18979 | 2948 ft | 198 kts | 353° |
| 2026-04-27 21:52 | 49.21058 | 7.18569 | 2965 ft | 199 kts | 352° |
| 2026-04-27 21:52 | 49.22414 | 7.18160 | 2961 ft | 201 kts | 354° |
| 2026-04-27 21:52 | 49.23793 | 7.17738 | 2944 ft | 200 kts | 353° |
| 2026-04-27 21:52 | 49.25155 | 7.17324 | 2938 ft | 198 kts | 353° |
| 2026-04-27 21:53 | 49.26486 | 7.16924 | 2971 ft | 198 kts | 353° |
| 2026-04-27 21:53 | 49.27859 | 7.16508 | 2950 ft | 200 kts | 353° |
| 2026-04-27 21:53 | 49.29243 | 7.16081 | 2941 ft | 206 kts | 353° |
| 2026-04-27 21:53 | 49.30632 | 7.15656 | 2939 ft | 200 kts | 353° |
| 2026-04-27 21:54 | 49.31986 | 7.15239 | 2963 ft | 199 kts | 353° |
| 2026-04-27 21:54 | 49.33339 | 7.14823 | 2942 ft | 198 kts | 352° |
| 2026-04-27 21:54 | 49.34709 | 7.14397 | 2941 ft | 198 kts | 352° |
| 2026-04-27 21:54 | 49.36042 | 7.13996 | 2939 ft | 196 kts | 353° |
| 2026-04-27 21:55 | 49.37377 | 7.13596 | 2940 ft | 196 kts | 353° |
| 2026-04-27 21:55 | 49.38717 | 7.13178 | 2946 ft | 195 kts | 353° |
| 2026-04-27 21:55 | 49.40053 | 7.12787 | 2943 ft | 195 kts | 356° |
| 2026-04-27 21:55 | 49.41390 | 7.12872 | 2952 ft | 192 kts | 12° |
| 2026-04-27 21:56 | 49.42694 | 7.13167 | 2941 ft | 189 kts | 12° |
| 2026-04-27 21:56 | 49.45296 | 7.13792 | 2963 ft | 192 kts | 13° |
| 2026-04-27 21:56 | 49.46615 | 7.14102 | 2964 ft | 191 kts | 13° |
| 2026-04-27 21:57 | 49.47933 | 7.14409 | 2941 ft | 192 kts | 13° |
| 2026-04-27 21:57 | 49.49259 | 7.14732 | 2940 ft | 192 kts | 13° |
| 2026-04-27 21:57 | 49.50558 | 7.15041 | 2937 ft | 185 kts | 13° |
| 2026-04-27 21:57 | 49.51809 | 7.15334 | 2950 ft | 183 kts | 13° |
| 2026-04-27 21:58 | 49.53067 | 7.15640 | 2940 ft | 181 kts | 13° |
| 2026-04-27 21:58 | 49.54311 | 7.15933 | 2948 ft | 179 kts | 13° |
| 2026-04-27 21:58 | 49.55547 | 7.16224 | 2945 ft | 180 kts | 13° |
| 2026-04-27 21:58 | 49.56780 | 7.16517 | 2939 ft | 182 kts | 12° |
| 2026-04-27 21:59 | 49.58030 | 7.16814 | 2954 ft | 180 kts | 13° |
| 2026-04-27 21:59 | 49.59275 | 7.17098 | 2937 ft | 179 kts | 8° |
| 2026-04-27 21:59 | 49.60506 | 7.16909 | 2956 ft | 179 kts | 354° |
| 2026-04-27 21:59 | 49.61708 | 7.16566 | 2947 ft | 173 kts | 354° |
| 2026-04-27 22:00 | 49.62878 | 7.16244 | 2945 ft | 167 kts | 354° |
| 2026-04-27 22:00 | 49.64016 | 7.15929 | 2944 ft | 165 kts | 354° |
| 2026-04-27 22:00 | 49.65151 | 7.15608 | 2955 ft | 165 kts | 356° |
| 2026-04-27 22:00 | 49.66269 | 7.15357 | 3011 ft | 163 kts | 356° |
| 2026-04-27 22:01 | 49.67398 | 7.15237 | 3015 ft | 165 kts | 6° |
| 2026-04-27 22:01 | 49.68514 | 7.15464 | 3067 ft | 158 kts | 14° |
| 2026-04-27 22:01 | 49.69591 | 7.15824 | 3106 ft | 161 kts | 18° |
| 2026-04-27 22:01 | 49.70697 | 7.16291 | 3094 ft | 164 kts | 16° |
| 2026-04-27 22:02 | 49.71838 | 7.16396 | 3054 ft | 170 kts | 356° |
| 2026-04-27 22:02 | 49.72997 | 7.15941 | 2982 ft | 170 kts | 349° |
| 2026-04-27 22:02 | 49.74126 | 7.15509 | 3005 ft | 164 kts | 351° |
| 2026-04-27 22:02 | 49.75239 | 7.15113 | 3066 ft | 163 kts | 352° |
| 2026-04-27 22:03 | 49.76316 | 7.14764 | 3083 ft | 158 kts | 353° |
| 2026-04-27 22:03 | 49.77408 | 7.14456 | 2919 ft | 161 kts | 354° |
| 2026-04-27 22:03 | 49.78479 | 7.14177 | 2943 ft | 150 kts | 355° |
| 2026-04-27 22:03 | 49.79465 | 7.13799 | 2889 ft | 141 kts | 346° |
| 2026-04-27 22:04 | 49.80363 | 7.13382 | 2838 ft | 135 kts | 352° |
| 2026-04-27 22:04 | 49.81264 | 7.13134 | 2746 ft | 127 kts | 356° |
| 2026-04-27 22:04 | 49.82117 | 7.12910 | 2623 ft | 126 kts | 357° |
| 2026-04-27 22:04 | 49.82999 | 7.12685 | 2518 ft | 129 kts | 355° |
| 2026-04-27 22:05 | 49.83885 | 7.12454 | 2435 ft | 128 kts | 356° |
| 2026-04-27 22:05 | 49.84740 | 7.12134 | 2349 ft | 123 kts | 348° |
| 2026-04-27 22:05 | 49.85542 | 7.11845 | 2328 ft | 115 kts | 359° |
| 2026-04-27 22:05 | 49.86351 | 7.11750 | 2256 ft | 115 kts | 1° |
| 2026-04-27 22:06 | 49.87164 | 7.11668 | 2140 ft | 120 kts | 0° |
| 2026-04-27 22:06 | 49.88009 | 7.11617 | 2034 ft | 125 kts | 1° |
| 2026-04-27 22:06 | 49.88889 | 7.11575 | 1952 ft | 127 kts | 3° |
| 2026-04-27 22:06 | 49.89785 | 7.11567 | 1870 ft | 127 kts | 2° |
| 2026-04-27 22:07 | 49.90648 | 7.11539 | 1841 ft | 125 kts | 357° |
| 2026-04-27 22:07 | 49.91536 | 7.11347 | 1746 ft | 128 kts | 357° |
| 2026-04-27 22:07 | 49.92404 | 7.11234 | 1676 ft | 119 kts | 0° |
| 2026-04-27 22:07 | 49.93173 | 7.11177 | 1547 ft | 105 kts | 0° |
| 2026-04-27 22:08 | 49.93889 | 7.11157 | 1433 ft | 103 kts | 2° |
| 2026-04-27 22:08 | 49.94598 | 7.11148 | 1288 ft | 100 kts | 2° |
| 2026-04-27 22:08 | 49.95293 | 7.11119 | 1170 ft | 101 kts | 4° |
| 2026-04-27 22:08 | 49.96000 | 7.11135 | 1025 ft | 100 kts | 2° |
| 2026-04-27 22:09 | 49.96636 | 7.11158 | 914 ft | 74 kts | 5° |
| 2026-04-27 22:09 | 49.96982 | 7.11193 | 927 ft | 32 kts | 358° |
| 2026-04-27 22:09 | 49.97103 | 7.11142 | 932 ft | 9 kts | 314° |
| 2026-04-27 22:09 | 49.97139 | 7.11134 | 934 ft | 2 kts | 10° |
| 2026-04-27 22:10 | 49.97141 | 7.11134 | 934 ft | 0 kts | 10° |